x

Fripp Nearshore (frp 2) (41033) Weather Station

5:00am - Sat 29th Aug 2015 All times are EDT. -4 hours from GMT.

  • Wind
    16mph, 18mph gusts
  • Air Temp 82°f
  • Sea Pressure 1018.6mb
  • Fripp Nearshore (frp 2)
  • Fripp Nearshore (frp 2)

More Historic Weather Station data

Upgrade to MSW Pro to gain access to the past 30 days of data for over 8000 Wavebouys and Weather Stations around the globe.

Join Pro

Comparision Forecast

View Surf forecast
   
Sat 08/29 5:00am 16 18 mph 1018.6mb 82f
4:00am 16 18 mph 1018.9mb 81f
3:00am 16 20 mph 1018.9mb 81f
2:00am 16 18 mph 1019.4mb 82f
1:00am 16 20 mph 1019.5mb 82f
12:00am 16 20 mph 1019.8mb 82f
Fri 08/28 11:00pm 18 20 mph 1019.9mb 82f
10:00pm 18 20 mph 1019.6mb 82f
9:00pm 22 27 mph 1018.8mb 82f
8:00pm 20 25 mph 1018mb 82f
7:00pm 18 25 mph 1018.2mb 82f
6:00pm 22 25 mph 1018.1mb 82f
5:00pm 18 20 mph 1017.6mb 84f
4:00pm 20 25 mph 1017.8mb 82f
5:00am 13 16 mph 1016mb 79f
4:00am 13
mph
1016mb 80f
3:00am 16
mph
1016.2mb 80f
2:00am 11 13 mph 1016.7mb 82f
1:00am 11 13 mph 1016.9mb 81f
12:00am 13 16 mph 1017mb 82f
Thu 08/27 9:00pm 9 13 mph 1015.8mb 83f
8:00pm 11 13 mph 1015mb 82f
7:00pm 9 11 mph 1014.5mb 82f
6:00pm 7 9 mph 1014.6mb 83f
5:00pm 9 11 mph 1014mb 84f
4:00pm 7 9 mph 1014.7mb 84f
3:00pm 11 16 mph 1014.8mb 83f
2:00pm 7 13 mph 1015.5mb 83f
12:00pm 16 20 mph 1015.3mb 83f
11:00am 20 25 mph 1015.3mb 82f
10:00am 18 22 mph 1014.8mb 82f
9:00am 18 20 mph 1013.8mb 83f
7:00am 16 18 mph 1012.6mb 80f
6:00am 7 11 mph 1012.5mb 81f
5:00am 7 9 mph 1012.3mb 81f
4:00am 11 13 mph 1012.2mb 83f
3:00am 7 9 mph 1011.2mb 81f
2:00am 16 20 mph 1013.5mb 80f
1:00am 9 11 mph 1013.1mb 84f
12:00am 7 9 mph 1012.5mb 84f
Wed 08/26 11:00pm 9
mph
1013.2mb 85f
10:00pm 11 13 mph 1013mb 84f
9:00pm 9 11 mph 1012.9mb 84f
8:00pm 11 13 mph 1012.3mb 84f
7:00pm 11 13 mph 1011.9mb 85f
6:00pm 9 11 mph 1011.4mb 86f
5:00pm 7 9 mph 1011.7mb 87f
4:00pm 7 9 mph 1012.1mb 87f
3:00pm 11
mph
1012.7mb 86f
12:00pm 9
mph
1013.9mb 86f
11:00am 9 11 mph 1013.6mb 85f
9:00am 4 7 mph 1013.6mb 83f
8:00am 4 7 mph 1012.7mb 81f
7:00am 9 11 mph 1012mb 82f
6:00am 7 9 mph 1011.7mb 82f
5:00am 9 11 mph 1010.5mb 83f
4:00am 13 16 mph 1010.4mb 83f
3:00am 18 22 mph 1010.6mb 84f
1:00am 16 18 mph 1012mb 85f
12:00am 13 18 mph 1011.9mb 85f
Tue 08/25 11:00pm 16 18 mph 1012.1mb 85f
10:00pm 16 18 mph 1011.5mb 85f
9:00pm 13 16 mph 1011mb 85f
8:00pm 13 18 mph 1010.7mb 85f
7:00pm 13 16 mph 1010.2mb 86f
6:00pm 11 13 mph 1009.9mb 87f
5:00pm 13
mph
1010.1mb 86f
4:00pm 13 16 mph 1010.4mb 86f
3:00pm 13
mph
1011mb 87f
1:00pm 9
mph
1012.5mb 87f
12:00pm 7
mph
1013.1mb 86f
11:00am 7 9 mph 1013mb 85f